Time;durP1;ratioP1;P1;durP2;ratioP2;P2;SDS_P1;SDS_P2;PMS_P1;PMS_P2;Temp;Humidity;BMP_temperature;BMP_pressure;BME280_temperature;BME280_humidity;BME280_pressure;Samples;Min_cycle;Max_cycle;Signal;HPM_P1;HPM_P2
2021/08/09 00:00:26;;;;;;;3.20;2.60;;;15.50;98.30;;;;;;2050177;28;20059;-77
2021/08/09 00:01:26;;;;;;;4.07;2.65;;;15.50;98.20;;;;;;2048400;29;20063;-76
2021/08/09 00:02:27;;;;;;;3.35;2.60;;;15.50;98.10;;;;;;2049001;28;20055;-76
2021/08/09 00:03:28;;;;;;;2.65;2.25;;;15.50;98.20;;;;;;2040956;29;20028;-75
2021/08/09 00:04:28;;;;;;;3.85;2.60;;;15.50;98.30;;;;;;2048857;29;20503;-76
2021/08/09 00:05:29;;;;;;;2.78;2.40;;;15.40;98.10;;;;;;2057054;28;20121;-75
2021/08/09 00:06:29;;;;;;;3.13;2.55;;;15.40;98.30;;;;;;2049629;29;20085;-76
2021/08/09 00:07:30;;;;;;;3.83;2.92;;;15.40;98.40;;;;;;2050130;28;20059;-76
2021/08/09 00:08:31;;;;;;;2.90;2.63;;;15.40;98.60;;;;;;2049327;29;20038;-75
2021/08/09 00:09:31;;;;;;;3.03;2.40;;;15.40;98.60;;;;;;2049601;29;20765;-76
2021/08/09 00:10:32;;;;;;;3.13;2.35;;;15.40;98.50;;;;;;2050129;28;20486;-76
2021/08/09 00:11:33;;;;;;;3.17;2.40;;;15.30;98.50;;;;;;2049717;28;20368;-75
2021/08/09 00:12:34;;;;;;;3.13;2.50;;;15.30;98.50;;;;;;2049453;29;20023;-76
2021/08/09 00:13:35;;;;;;;2.72;2.50;;;15.30;98.50;;;;;;2049133;29;20034;-76
2021/08/09 00:14:38;;;;;;;2.92;2.40;;;15.30;98.40;;;;;;2049795;28;20041;-76
2021/08/09 00:15:39;;;;;;;2.80;2.40;;;15.30;98.70;;;;;;2050313;28;20111;-75
2021/08/09 00:16:40;;;;;;;3.47;2.63;;;15.30;98.70;;;;;;2050233;28;20077;-76
2021/08/09 00:17:41;;;;;;;3.63;2.50;;;15.20;98.50;;;;;;2050114;28;20028;-77
2021/08/09 00:18:45;;;;;;;3.95;2.70;;;15.30;98.30;;;;;;2050218;28;20078;-75
2021/08/09 00:19:46;;;;;;;3.85;2.50;;;15.20;98.30;;;;;;2050197;28;20106;-75
2021/08/09 00:20:47;;;;;;;2.95;2.45;;;15.20;98.20;;;;;;2049200;28;20027;-76
2021/08/09 00:21:47;;;;;;;3.65;2.45;;;15.20;98.20;;;;;;2049930;28;20507;-75
2021/08/09 00:22:48;;;;;;;3.22;2.63;;;15.20;98.10;;;;;;2049912;28;20110;-75
2021/08/09 00:23:49;;;;;;;3.22;2.45;;;15.20;98.00;;;;;;2050104;28;20030;-75
2021/08/09 00:24:50;;;;;;;3.90;2.60;;;15.20;98.10;;;;;;2049267;29;20483;-76
2021/08/09 00:25:51;;;;;;;2.88;2.40;;;15.20;97.70;;;;;;2049402;29;20142;-76
2021/08/09 00:26:51;;;;;;;2.63;2.42;;;15.20;97.60;;;;;;2050185;28;20030;-77
2021/08/09 00:27:52;;;;;;;6.20;2.50;;;15.20;97.60;;;;;;2050488;28;20031;-76
2021/08/09 00:28:52;;;;;;;3.72;2.55;;;15.20;97.40;;;;;;2049407;29;20398;-76
2021/08/09 00:29:53;;;;;;;2.58;2.28;;;15.20;97.30;;;;;;2041772;29;20111;-76
2021/08/09 00:30:54;;;;;;;2.53;2.33;;;15.20;97.20;;;;;;2040742;29;20058;-76
2021/08/09 00:31:54;;;;;;;2.70;2.45;;;15.10;97.10;;;;;;2041278;29;20042;-75
2021/08/09 00:32:55;;;;;;;3.22;2.50;;;15.10;97.10;;;;;;2049325;29;20031;-75
2021/08/09 00:33:56;;;;;;;2.40;2.20;;;15.10;97.20;;;;;;2048668;28;20090;-76
2021/08/09 00:34:57;;;;;;;2.70;2.50;;;15.10;97.00;;;;;;2040741;29;20031;-75
2021/08/09 00:35:58;;;;;;;3.60;2.35;;;15.10;96.90;;;;;;2040896;29;20036;-76
2021/08/09 00:36:58;;;;;;;4.28;2.53;;;15.10;96.90;;;;;;2040823;29;20059;-75
2021/08/09 00:37:59;;;;;;;3.92;2.42;;;15.10;97.00;;;;;;2040926;29;20565;-75
2021/08/09 00:39:00;;;;;;;2.50;2.30;;;15.10;96.90;;;;;;2040690;29;20429;-76
2021/08/09 00:40:01;;;;;;;3.17;2.30;;;15.00;96.80;;;;;;2032791;29;20032;-75
2021/08/09 00:41:02;;;;;;;2.90;2.40;;;15.00;96.80;;;;;;2032699;29;20566;-76
2021/08/09 00:42:03;;;;;;;3.10;2.55;;;15.00;96.80;;;;;;2048748;29;20035;-75
2021/08/09 00:43:04;;;;;;;3.47;2.70;;;15.10;97.00;;;;;;2048513;29;20041;-75
2021/08/09 00:44:05;;;;;;;3.20;2.40;;;15.00;96.90;;;;;;2048919;28;20035;-78
2021/08/09 00:45:08;;;;;;;3.75;2.38;;;15.00;96.90;;;;;;2048783;29;20027;-75
2021/08/09 00:46:09;;;;;;;3.92;2.40;;;15.00;96.70;;;;;;2048587;28;20015;-75
2021/08/09 00:47:14;;;;;;;3.40;2.30;;;15.00;96.60;;;;;;2048381;28;20085;-75
2021/08/09 00:48:15;;;;;;;2.88;2.58;;;15.00;96.40;;;;;;2049252;28;20074;-75
2021/08/09 00:49:16;;;;;;;2.50;2.30;;;15.00;96.50;;;;;;2049494;28;20027;-75
2021/08/09 00:50:17;;;;;;;2.78;2.38;;;15.00;96.50;;;;;;2049238;29;20030;-76
2021/08/09 00:51:19;;;;;;;2.60;2.17;;;15.00;96.70;;;;;;2040831;28;20464;-75
2021/08/09 00:52:22;;;;;;;3.65;2.35;;;15.00;96.70;;;;;;2056894;28;20030;-75
2021/08/09 00:53:25;;;;;;;2.50;2.30;;;15.00;96.80;;;;;;2049963;28;20082;-75
2021/08/09 00:54:26;;;;;;;3.50;2.30;;;15.00;96.90;;;;;;2049414;29;20110;-75
2021/08/09 00:55:27;;;;;;;2.60;2.40;;;15.00;97.00;;;;;;2049348;28;20035;-75
2021/08/09 00:56:28;;;;;;;2.78;2.30;;;14.90;97.10;;;;;;2041441;29;20081;-75
2021/08/09 00:57:29;;;;;;;2.58;2.38;;;15.00;97.20;;;;;;2041315;29;20023;-77
2021/08/09 00:58:31;;;;;;;3.13;2.55;;;15.00;97.30;;;;;;2041085;29;20088;-76
2021/08/09 00:59:32;;;;;;;2.58;2.20;;;14.90;97.70;;;;;;2049250;29;20454;-76
2021/08/09 01:00:33;;;;;;;3.97;2.40;;;14.90;97.60;;;;;;2041058;29;20031;-76
2021/08/09 01:01:33;;;;;;;3.47;2.22;;;15.00;97.70;;;;;;2040705;29;20082;-75
2021/08/09 01:02:38;;;;;;;2.58;2.20;;;15.00;97.40;;;;;;2049061;28;20105;-77
2021/08/09 01:03:38;;;;;;;3.65;2.45;;;15.00;97.50;;;;;;2049044;28;20027;-76
2021/08/09 01:04:40;;;;;;;3.35;2.40;;;15.00;97.80;;;;;;2049071;29;20094;-75
2021/08/09 01:05:41;;;;;;;3.63;2.22;;;15.00;98.10;;;;;;2049216;29;20426;-76
2021/08/09 01:06:45;;;;;;;4.13;2.70;;;14.90;97.90;;;;;;2049118;29;20050;-75
2021/08/09 01:08:00;;;;;;;3.33;2.30;;;14.90;98.00;;;;;;2041285;29;20448;-75
2021/08/09 01:09:09;;;;;;;2.50;2.20;;;14.90;97.50;;;;;;2042965;29;20060;-75
2021/08/09 01:10:18;;;;;;;2.67;2.20;;;14.90;97.20;;;;;;2041958;29;20027;-75
2021/08/09 01:11:34;;;;;;;3.28;2.38;;;14.90;97.30;;;;;;2041830;29;20028;-74
2021/08/09 01:13:26;;;;;;;3.20;2.20;;;14.90;97.50;;;;;;2043767;29;20028;-76
2021/08/09 01:14:36;;;;;;;2.58;2.13;;;14.90;97.50;;;;;;2020444;29;20540;-74
2021/08/09 01:15:42;;;;;;;3.63;2.30;;;14.80;97.20;;;;;;2042314;29;20399;-75
2021/08/09 01:16:44;;;;;;;2.38;2.03;;;14.80;96.90;;;;;;2049322;29;20472;-75
2021/08/09 01:17:47;;;;;;;2.67;2.40;;;14.80;96.60;;;;;;2049226;29;20047;-75
2021/08/09 01:18:50;;;;;;;2.50;2.30;;;14.80;96.50;;;;;;2041562;29;20032;-75
2021/08/09 01:20:07;;;;;;;3.97;2.30;;;14.80;96.80;;;;;;2033462;29;20059;-76
2021/08/09 01:21:11;;;;;;;2.95;2.20;;;14.80;96.60;;;;;;2043120;29;20159;-76
2021/08/09 01:22:54;;;;;;;3.95;2.17;;;14.80;96.60;;;;;;2049021;29;20038;-76
2021/08/09 01:24:07;;;;;;;2.20;1.95;;;14.80;96.40;;;;;;2030542;29;20045;-76
2021/08/09 01:25:35;;;;;;;2.45;2.20;;;14.70;96.40;;;;;;2033030;29;20099;-75
2021/08/09 01:26:46;;;;;;;2.97;2.38;;;14.70;96.40;;;;;;2047347;28;20043;-75
2021/08/09 01:27:50;;;;;;;2.75;2.33;;;14.80;96.60;;;;;;2049071;29;20503;-76
2021/08/09 01:28:58;;;;;;;3.47;2.30;;;14.70;96.40;;;;;;2041844;29;20044;-75
2021/08/09 01:30:06;;;;;;;3.90;2.30;;;14.80;96.40;;;;;;2042048;29;20042;-77
2021/08/09 01:31:07;;;;;;;3.15;2.17;;;14.80;96.10;;;;;;2041292;29;20035;-76
2021/08/09 01:32:12;;;;;;;2.42;2.22;;;14.80;95.80;;;;;;2041123;29;20095;-76
2021/08/09 01:33:15;;;;;;;2.75;2.20;;;14.70;95.70;;;;;;2049080;28;20023;-75
2021/08/09 01:34:19;;;;;;;5.13;2.15;;;14.80;95.60;;;;;;2048309;28;20099;-75
2021/08/09 01:35:23;;;;;;;2.58;2.15;;;14.80;95.60;;;;;;2041144;29;20034;-76
2021/08/09 01:36:28;;;;;;;2.40;2.20;;;14.80;95.40;;;;;;2049000;28;20031;-76
2021/08/09 01:37:31;;;;;;;2.50;2.30;;;14.80;95.10;;;;;;2041318;29;20494;-76
2021/08/09 01:38:33;;;;;;;2.28;1.90;;;14.80;95.10;;;;;;2040800;29;20039;-76
2021/08/09 01:39:34;;;;;;;2.97;2.10;;;14.80;95.20;;;;;;2048904;28;20119;-76
2021/08/09 01:40:36;;;;;;;2.45;2.00;;;14.80;95.30;;;;;;2048273;29;20027;-76
2021/08/09 01:41:39;;;;;;;2.47;2.20;;;14.80;95.30;;;;;;2047962;28;20035;-76
2021/08/09 01:42:46;;;;;;;2.40;2.10;;;14.80;95.20;;;;;;2040655;29;20107;-76
2021/08/09 01:43:48;;;;;;;2.60;2.00;;;14.80;95.10;;;;;;2041287;29;20059;-76
2021/08/09 01:44:49;;;;;;;2.60;2.00;;;14.80;94.90;;;;;;2040495;29;20035;-76
2021/08/09 01:45:56;;;;;;;2.20;2.00;;;14.70;94.90;;;;;;2040486;29;20030;-76
2021/08/09 01:46:57;;;;;;;2.88;2.17;;;14.70;94.90;;;;;;2040744;29;20024;-76
2021/08/09 01:48:00;;;;;;;2.05;1.92;;;14.70;94.90;;;;;;2040378;29;20056;-76
2021/08/09 01:49:06;;;;;;;2.50;2.00;;;14.70;94.80;;;;;;2048057;29;20023;-76
2021/08/09 01:50:10;;;;;;;2.20;2.00;;;14.70;95.00;;;;;;2047914;29;20090;-76
2021/08/09 01:51:10;;;;;;;3.97;2.10;;;14.70;95.10;;;;;;2047034;28;20027;-76
2021/08/09 01:52:13;;;;;;;3.00;2.17;;;14.70;95.30;;;;;;2039887;29;20043;-75
2021/08/09 01:53:14;;;;;;;3.28;2.20;;;14.60;95.50;;;;;;2047992;29;20027;-75
2021/08/09 01:54:15;;;;;;;2.80;2.20;;;14.60;95.90;;;;;;2039890;29;20153;-76
2021/08/09 01:55:18;;;;;;;3.55;2.40;;;14.60;95.40;;;;;;2040121;29;20039;-76
2021/08/09 01:56:26;;;;;;;2.88;2.30;;;14.60;95.50;;;;;;2041049;29;20043;-76
2021/08/09 01:57:27;;;;;;;2.60;2.40;;;14.70;95.60;;;;;;2039962;29;20098;-76
2021/08/09 01:58:28;;;;;;;3.58;2.30;;;14.60;96.00;;;;;;2040053;29;20064;-77
2021/08/09 01:59:30;;;;;;;2.45;2.20;;;14.60;96.10;;;;;;2039445;29;20038;-76
2021/08/09 02:00:31;;;;;;;3.30;2.45;;;14.60;96.40;;;;;;2039551;29;20486;-76
2021/08/09 02:01:32;;;;;;;3.00;2.30;;;14.60;96.30;;;;;;2047470;28;20091;-76
2021/08/09 02:02:33;;;;;;;2.70;2.38;;;14.60;96.10;;;;;;2047816;29;20035;-76
2021/08/09 02:03:35;;;;;;;3.88;2.40;;;14.60;96.00;;;;;;2039922;28;20117;-76
2021/08/09 02:04:36;;;;;;;3.55;2.40;;;14.60;96.10;;;;;;2047920;28;20166;-77
2021/08/09 02:05:37;;;;;;;2.65;2.40;;;14.60;96.00;;;;;;2039835;29;20027;-76
2021/08/09 02:06:43;;;;;;;2.75;2.30;;;14.60;96.10;;;;;;2041182;29;20159;-76
2021/08/09 02:07:46;;;;;;;3.08;2.42;;;14.60;96.30;;;;;;2042677;29;20546;-76
2021/08/09 02:08:47;;;;;;;3.47;2.50;;;14.60;96.30;;;;;;2042899;29;20028;-76
2021/08/09 02:09:48;;;;;;;2.97;2.50;;;14.50;96.50;;;;;;2049871;28;20031;-76
2021/08/09 02:11:04;;;;;;;3.53;2.60;;;14.50;96.20;;;;;;2047804;29;20447;-75
2021/08/09 02:12:07;;;;;;;2.50;2.30;;;14.60;96.20;;;;;;2048690;29;20038;-74
2021/08/09 02:13:19;;;;;;;3.42;2.40;;;14.50;96.10;;;;;;2048211;29;20502;-75
2021/08/09 02:14:24;;;;;;;2.72;2.38;;;14.50;96.30;;;;;;2041712;29;20063;-76
2021/08/09 02:15:44;;;;;;;3.22;2.28;;;14.50;96.30;;;;;;2040401;29;20519;-76
2021/08/09 02:17:21;;;;;;;3.13;2.40;;;14.50;96.20;;;;;;2034480;29;20653;-76
2021/08/09 02:18:51;;;;;;;3.15;2.45;;;14.50;96.10;;;;;;2041485;29;20027;-76
2021/08/09 02:20:01;;;;;;;2.70;2.30;;;14.50;95.60;;;;;;2053822;28;20026;-77
2021/08/09 02:21:06;;;;;;;2.67;2.20;;;14.50;95.60;;;;;;2048666;28;20031;-78
2021/08/09 02:22:18;;;;;;;2.97;2.40;;;14.50;95.70;;;;;;2048997;28;20031;-78
2021/08/09 02:23:20;;;;;;;3.65;2.42;;;14.50;95.80;;;;;;2048376;29;20039;-77
2021/08/09 02:24:29;;;;;;;3.13;2.40;;;14.50;95.80;;;;;;2032886;29;20083;-77
2021/08/09 02:25:34;;;;;;;2.65;2.45;;;14.50;95.90;;;;;;2034759;29;20460;-77
2021/08/09 02:26:41;;;;;;;3.03;2.38;;;14.50;96.00;;;;;;2049185;28;20024;-78
2021/08/09 02:27:57;;;;;;;2.45;2.22;;;14.50;96.50;;;;;;2048397;28;20027;-78
2021/08/09 02:29:10;;;;;;;2.42;2.05;;;14.50;95.90;;;;;;2042713;29;20086;-78
2021/08/09 02:30:13;;;;;;;2.58;2.35;;;14.40;95.90;;;;;;2041825;29;20135;-76
2021/08/09 02:31:15;;;;;;;4.32;2.30;;;14.40;96.40;;;;;;2046816;28;20058;-76
2021/08/09 02:32:19;;;;;;;3.88;2.38;;;14.40;96.50;;;;;;2039842;29;20122;-76
2021/08/09 02:33:22;;;;;;;2.75;2.10;;;14.40;96.70;;;;;;2039846;29;20565;-76
2021/08/09 02:34:29;;;;;;;2.92;2.30;;;14.40;96.70;;;;;;2039840;29;20028;-76
2021/08/09 02:35:30;;;;;;;3.10;2.38;;;14.40;96.30;;;;;;2040160;29;20038;-76
2021/08/09 02:36:32;;;;;;;2.30;2.10;;;14.40;96.00;;;;;;2039793;29;20039;-76
2021/08/09 02:37:33;;;;;;;2.70;2.30;;;14.40;95.90;;;;;;2039500;29;20036;-76
2021/08/09 02:38:35;;;;;;;3.03;2.13;;;14.40;96.00;;;;;;2039640;29;20064;-76
2021/08/09 02:39:38;;;;;;;2.95;2.03;;;14.30;96.00;;;;;;2039527;29;20091;-76
2021/08/09 02:40:40;;;;;;;3.55;2.30;;;14.40;96.20;;;;;;2047097;29;20506;-76
2021/08/09 02:41:41;;;;;;;2.28;2.00;;;14.40;96.40;;;;;;2039191;29;20455;-76
2021/08/09 02:42:42;;;;;;;3.17;2.13;;;14.40;96.00;;;;;;2047427;28;20190;-76
2021/08/09 02:43:43;;;;;;;2.58;2.20;;;14.40;96.10;;;;;;2010763;29;1069440;-76
2021/08/09 02:44:45;;;;;;;2.33;1.95;;;14.40;96.00;;;;;;2039932;29;20478;-76
2021/08/09 02:45:47;;;;;;;2.30;2.10;;;14.40;95.80;;;;;;2039756;29;20035;-76
2021/08/09 02:46:48;;;;;;;2.42;2.00;;;14.40;95.60;;;;;;2040096;29;20036;-76
2021/08/09 02:47:51;;;;;;;3.63;2.30;;;14.40;95.60;;;;;;2039719;29;20027;-76
2021/08/09 02:48:52;;;;;;;2.17;1.98;;;14.40;95.60;;;;;;2032312;29;20028;-76
2021/08/09 02:49:53;;;;;;;2.70;2.10;;;14.40;95.60;;;;;;2039928;29;20028;-76
2021/08/09 02:50:54;;;;;;;2.65;2.13;;;14.40;95.50;;;;;;2039151;29;20612;-76
2021/08/09 02:51:55;;;;;;;3.42;1.98;;;14.40;95.70;;;;;;2039838;29;20031;-76
2021/08/09 02:52:57;;;;;;;3.53;2.30;;;14.40;95.20;;;;;;2047784;29;20031;-75
2021/08/09 02:54:00;;;;;;;3.95;2.30;;;14.40;94.70;;;;;;2047843;28;20087;-76
2021/08/09 02:55:02;;;;;;;3.53;2.30;;;14.50;94.20;;;;;;2039983;29;20707;-76
2021/08/09 02:56:04;;;;;;;3.92;2.20;;;14.50;93.90;;;;;;2040099;29;20122;-76
2021/08/09 02:57:08;;;;;;;3.45;2.20;;;14.50;93.70;;;;;;2040201;29;20058;-76
2021/08/09 02:58:09;;;;;;;4.10;2.30;;;14.50;94.10;;;;;;2039913;29;20096;-76
2021/08/09 02:59:11;;;;;;;3.80;2.20;;;14.50;93.90;;;;;;2039694;29;20038;-76
2021/08/09 03:00:12;;;;;;;4.13;2.50;;;14.50;94.00;;;;;;2031966;29;20034;-76
2021/08/09 03:01:15;;;;;;;2.50;2.05;;;14.60;93.60;;;;;;2031124;29;20626;-76
2021/08/09 03:02:17;;;;;;;3.67;2.42;;;14.50;93.70;;;;;;2040027;29;20066;-76
2021/08/09 03:03:22;;;;;;;3.05;2.10;;;14.50;93.90;;;;;;2047594;29;20635;-76
2021/08/09 03:04:26;;;;;;;2.15;1.95;;;14.50;94.10;;;;;;2048515;28;20031;-76
2021/08/09 03:05:28;;;;;;;3.50;2.20;;;14.50;94.30;;;;;;2047654;29;20623;-76
2021/08/09 03:06:30;;;;;;;3.40;2.45;;;14.40;94.60;;;;;;2039863;29;20031;-76
2021/08/09 03:07:37;;;;;;;2.63;2.13;;;14.40;94.70;;;;;;2039935;29;20039;-76
2021/08/09 03:08:41;;;;;;;2.55;2.30;;;14.40;94.70;;;;;;2047927;29;20034;-76
2021/08/09 03:09:41;;;;;;;2.95;2.30;;;14.40;94.80;;;;;;2048578;29;20070;-79
2021/08/09 03:10:42;;;;;;;2.65;2.08;;;14.30;94.80;;;;;;2047131;28;20118;-76
2021/08/09 03:11:43;;;;;;;2.80;2.15;;;14.30;95.00;;;;;;2040206;29;20028;-77
2021/08/09 03:12:44;;;;;;;2.75;2.30;;;14.30;95.20;;;;;;2040666;29;20491;-76
2021/08/09 03:13:47;;;;;;;2.85;2.30;;;14.30;95.40;;;;;;2040442;29;20035;-78
2021/08/09 03:14:50;;;;;;;3.17;2.30;;;14.30;95.40;;;;;;2048539;28;20114;-76
2021/08/09 03:15:51;;;;;;;4.40;2.50;;;14.30;95.30;;;;;;2048332;28;20035;-76
2021/08/09 03:16:53;;;;;;;3.08;2.15;;;14.30;95.20;;;;;;2048164;29;20497;-76
2021/08/09 03:17:54;;;;;;;3.88;2.22;;;14.20;95.00;;;;;;2048612;28;20027;-77
2021/08/09 03:18:55;;;;;;;2.83;2.28;;;14.30;94.80;;;;;;2048275;29;20391;-76
2021/08/09 03:19:56;;;;;;;3.33;2.22;;;14.30;95.00;;;;;;2048431;28;20027;-77
2021/08/09 03:20:56;;;;;;;2.30;2.03;;;14.30;95.10;;;;;;2047415;28;20039;-77
2021/08/09 03:21:59;;;;;;;5.18;2.17;;;14.30;95.30;;;;;;2048290;29;20026;-77
2021/08/09 03:23:00;;;;;;;3.85;2.40;;;14.30;95.40;;;;;;2048456;29;20518;-76
2021/08/09 03:24:01;;;;;;;3.17;2.10;;;14.30;95.40;;;;;;2039997;29;20015;-77
2021/08/09 03:25:02;;;;;;;2.70;2.20;;;14.30;95.30;;;;;;2047876;28;20036;-77
2021/08/09 03:26:03;;;;;;;4.47;2.40;;;14.30;95.40;;;;;;2047937;29;20046;-77
2021/08/09 03:27:05;;;;;;;2.72;2.20;;;14.30;95.30;;;;;;2048151;28;20035;-77
2021/08/09 03:28:06;;;;;;;4.63;2.00;;;14.30;95.40;;;;;;2048102;29;20047;-78
2021/08/09 03:29:07;;;;;;;3.25;2.20;;;14.30;95.60;;;;;;2048568;28;20031;-78
2021/08/09 03:30:08;;;;;;;3.78;2.30;;;14.20;95.70;;;;;;2048665;28;20476;-77
2021/08/09 03:31:09;;;;;;;4.45;2.22;;;14.30;96.10;;;;;;2047347;29;20027;-77
2021/08/09 03:32:11;;;;;;;2.60;2.20;;;14.20;96.30;;;;;;2048034;28;20034;-77
2021/08/09 03:33:11;;;;;;;2.53;2.22;;;14.20;96.40;;;;;;2048143;29;20023;-78
2021/08/09 03:34:12;;;;;;;2.35;2.08;;;14.20;96.40;;;;;;2048129;29;20518;-76
2021/08/09 03:35:13;;;;;;;3.70;2.45;;;14.20;96.50;;;;;;2048334;28;20779;-77
2021/08/09 03:36:13;;;;;;;2.50;2.22;;;14.20;96.50;;;;;;2048520;29;20515;-77
2021/08/09 03:37:15;;;;;;;4.10;2.35;;;14.20;96.60;;;;;;2048114;29;20035;-77
2021/08/09 03:38:15;;;;;;;3.70;2.30;;;14.20;96.70;;;;;;2040184;29;20039;-78
2021/08/09 03:39:16;;;;;;;3.25;2.30;;;14.20;96.70;;;;;;2040103;29;20023;-77
2021/08/09 03:40:17;;;;;;;4.88;2.63;;;14.20;96.70;;;;;;2047398;29;20399;-77
2021/08/09 03:41:18;;;;;;;3.13;2.50;;;14.20;96.90;;;;;;2047315;28;20122;-76
2021/08/09 03:42:20;;;;;;;3.20;2.30;;;14.20;97.00;;;;;;2040329;29;20039;-77
2021/08/09 03:43:22;;;;;;;4.03;2.40;;;14.20;97.00;;;;;;2040382;29;20032;-77
2021/08/09 03:44:24;;;;;;;3.30;2.47;;;14.20;97.20;;;;;;2048381;28;20483;-77
2021/08/09 03:45:25;;;;;;;2.65;2.30;;;14.20;97.40;;;;;;2048273;29;20038;-76
2021/08/09 03:46:26;;;;;;;3.28;2.40;;;14.20;97.50;;;;;;2048136;29;20051;-79
2021/08/09 03:47:27;;;;;;;3.30;2.88;;;14.20;97.90;;;;;;2048347;29;20464;-77
2021/08/09 03:48:27;;;;;;;4.95;3.63;;;14.10;97.80;;;;;;2048537;28;20204;-77
2021/08/09 03:49:28;;;;;;;3.63;3.00;;;14.10;97.60;;;;;;2040413;29;20059;-77
2021/08/09 03:50:29;;;;;;;3.17;2.85;;;14.20;97.50;;;;;;2047913;29;20117;-78
2021/08/09 03:51:32;;;;;;;5.13;2.85;;;14.20;97.20;;;;;;2055466;28;20082;-76
2021/08/09 03:52:33;;;;;;;2.97;2.70;;;14.20;97.00;;;;;;2047746;28;20067;-78
2021/08/09 03:53:34;;;;;;;3.58;2.60;;;14.20;97.00;;;;;;2048055;29;20122;-78
2021/08/09 03:54:35;;;;;;;2.85;2.55;;;14.20;97.00;;;;;;2040293;29;20491;-77
2021/08/09 03:55:36;;;;;;;3.22;2.58;;;14.30;96.90;;;;;;2040344;29;20031;-76
2021/08/09 03:56:37;;;;;;;3.28;2.70;;;14.30;96.80;;;;;;2040555;29;20036;-77
2021/08/09 03:57:38;;;;;;;3.53;2.50;;;14.30;96.80;;;;;;2040511;29;20034;-78
2021/08/09 03:58:38;;;;;;;3.38;2.60;;;14.40;96.80;;;;;;2040438;29;20032;-77
2021/08/09 03:59:39;;;;;;;3.65;2.60;;;14.40;96.90;;;;;;2040252;29;20027;-78
2021/08/09 04:00:40;;;;;;;3.38;2.90;;;14.30;96.90;;;;;;2047869;29;20039;-78
2021/08/09 04:01:41;;;;;;;3.28;2.53;;;14.40;96.80;;;;;;2047968;29;20118;-78
2021/08/09 04:02:43;;;;;;;4.22;2.95;;;14.40;96.60;;;;;;2040361;28;20031;-78
2021/08/09 04:03:52;;;;;;;5.78;2.90;;;14.40;96.50;;;;;;2034415;29;20448;-78
2021/08/09 04:04:54;;;;;;;5.60;3.00;;;14.40;96.30;;;;;;2040343;29;20035;-77
2021/08/09 04:05:54;;;;;;;4.68;3.00;;;14.40;96.60;;;;;;2040309;29;20114;-78
2021/08/09 04:06:55;;;;;;;5.05;2.90;;;14.40;96.80;;;;;;2040205;29;20040;-78
2021/08/09 04:07:56;;;;;;;3.30;3.00;;;14.40;96.90;;;;;;2048201;29;20036;-77
2021/08/09 04:08:56;;;;;;;5.25;3.10;;;14.40;96.90;;;;;;2048651;29;20027;-77
2021/08/09 04:09:57;;;;;;;4.32;3.00;;;14.40;97.10;;;;;;2048072;29;20031;-77
2021/08/09 04:10:58;;;;;;;4.18;2.75;;;14.40;97.30;;;;;;2039171;29;20028;-77
2021/08/09 04:11:58;;;;;;;4.07;2.90;;;14.40;97.10;;;;;;2048106;29;20095;-76
2021/08/09 04:12:59;;;;;;;3.78;2.50;;;14.40;97.30;;;;;;2047929;29;20042;-77
2021/08/09 04:14:01;;;;;;;3.78;2.80;;;14.50;97.60;;;;;;2048003;28;20541;-76
2021/08/09 04:15:03;;;;;;;4.93;2.50;;;14.40;97.40;;;;;;2047743;29;20521;-77
2021/08/09 04:16:04;;;;;;;4.05;3.00;;;14.50;97.60;;;;;;2047796;29;20031;-79
2021/08/09 04:17:04;;;;;;;4.00;2.88;;;14.50;97.90;;;;;;2048079;29;20482;-77
2021/08/09 04:18:06;;;;;;;5.25;2.97;;;14.50;98.30;;;;;;2047853;29;20029;-78
2021/08/09 04:19:06;;;;;;;4.78;2.80;;;14.50;97.80;;;;;;2055905;28;20035;-76
2021/08/09 04:20:08;;;;;;;3.33;2.72;;;14.50;97.80;;;;;;2048014;29;20027;-78
2021/08/09 04:21:09;;;;;;;4.63;2.88;;;14.50;97.90;;;;;;2047311;28;20035;-78
2021/08/09 04:22:10;;;;;;;3.22;2.63;;;14.50;97.90;;;;;;2048049;28;20058;-77
2021/08/09 04:23:10;;;;;;;5.15;3.00;;;14.50;98.10;;;;;;2049288;29;20038;-76
2021/08/09 04:24:11;;;;;;;5.25;2.90;;;14.50;98.20;;;;;;2041485;29;20050;-77
2021/08/09 04:25:11;;;;;;;3.13;2.58;;;14.50;98.20;;;;;;2049231;28;20045;-77
2021/08/09 04:26:13;;;;;;;3.20;2.78;;;14.50;98.20;;;;;;2041467;29;20514;-77
2021/08/09 04:27:13;;;;;;;4.32;2.75;;;14.50;98.10;;;;;;2033798;29;20143;-78
2021/08/09 04:28:14;;;;;;;3.30;2.80;;;14.60;98.00;;;;;;2041329;29;20027;-77
2021/08/09 04:29:15;;;;;;;2.90;2.60;;;14.60;98.00;;;;;;2041471;29;20110;-76
2021/08/09 04:30:15;;;;;;;3.50;2.90;;;14.60;98.00;;;;;;2042976;29;20055;-77
2021/08/09 04:31:20;;;;;;;4.20;2.90;;;14.70;97.90;;;;;;2050093;29;20086;-77
2021/08/09 04:32:22;;;;;;;3.30;2.70;;;14.70;98.10;;;;;;2050303;29;20020;-77
2021/08/09 04:33:23;;;;;;;3.95;2.80;;;14.80;98.00;;;;;;2049688;29;20035;-76
2021/08/09 04:34:25;;;;;;;3.60;2.60;;;15.00;97.80;;;;;;2049505;29;20114;-76
2021/08/09 04:35:27;;;;;;;4.55;2.80;;;15.20;97.30;;;;;;2041356;29;20055;-77
2021/08/09 04:36:28;;;;;;;4.47;2.78;;;15.40;96.60;;;;;;2049597;29;20036;-77
2021/08/09 04:37:29;;;;;;;4.30;2.45;;;15.70;95.70;;;;;;2049402;29;20035;-77
2021/08/09 04:38:29;;;;;;;4.53;2.67;;;16.00;94.70;;;;;;2049247;29;20067;-77
2021/08/09 04:39:30;;;;;;;3.85;2.30;;;16.20;93.70;;;;;;2049195;28;20031;-78
2021/08/09 04:40:31;;;;;;;3.72;2.33;;;16.50;92.70;;;;;;2040953;29;20119;-77
2021/08/09 04:41:33;;;;;;;3.75;2.45;;;16.80;91.30;;;;;;2041019;29;20055;-78
2021/08/09 04:42:34;;;;;;;3.65;2.15;;;17.00;90.10;;;;;;2048958;29;20024;-77
2021/08/09 04:43:37;;;;;;;2.38;1.95;;;17.30;88.70;;;;;;2049135;29;20031;-77
2021/08/09 04:44:38;;;;;;;2.80;2.05;;;17.50;86.20;;;;;;2041243;28;20058;-77
2021/08/09 04:45:38;;;;;;;3.25;2.22;;;17.70;84.40;;;;;;2033586;29;20123;-77
2021/08/09 04:46:40;;;;;;;2.53;2.10;;;17.80;83.00;;;;;;2041311;29;20118;-76
2021/08/09 04:47:41;;;;;;;3.60;2.15;;;18.00;82.50;;;;;;2041076;29;20096;-78
2021/08/09 04:48:43;;;;;;;2.50;1.98;;;18.10;81.80;;;;;;2041691;29;20504;-76
2021/08/09 04:49:44;;;;;;;4.13;1.90;;;18.30;80.80;;;;;;2041335;29;20038;-77
2021/08/09 04:50:45;;;;;;;4.78;2.00;;;18.40;79.10;;;;;;2040462;28;20102;-77
2021/08/09 04:51:46;;;;;;;4.65;1.85;;;18.60;77.90;;;;;;2041539;29;20022;-76
2021/08/09 04:52:46;;;;;;;4.05;2.08;;;18.70;76.50;;;;;;2049286;29;20055;-78
2021/08/09 04:53:54;;;;;;;3.03;2.20;;;18.80;75.60;;;;;;2049396;29;20031;-77
2021/08/09 04:54:55;;;;;;;3.13;1.98;;;18.90;75.10;;;;;;2049215;28;20471;-77
2021/08/09 04:55:56;;;;;;;4.60;2.22;;;18.90;74.90;;;;;;2049297;29;20035;-77
2021/08/09 04:56:57;;;;;;;3.05;2.22;;;18.90;75.20;;;;;;2049301;29;20040;-78
2021/08/09 04:57:58;;;;;;;3.38;2.13;;;18.90;75.30;;;;;;2049274;28;20441;-76
2021/08/09 04:59:00;;;;;;;2.92;2.17;;;18.90;75.10;;;;;;2049350;29;20114;-77
2021/08/09 05:00:01;;;;;;;4.03;2.13;;;19.00;74.70;;;;;;2049453;28;20042;-78
2021/08/09 05:01:03;;;;;;;3.45;2.03;;;19.10;74.20;;;;;;2048632;29;20495;-77
2021/08/09 05:02:04;;;;;;;2.70;2.08;;;19.20;73.60;;;;;;2041285;29;20118;-77
2021/08/09 05:03:05;;;;;;;2.30;2.00;;;19.30;73.20;;;;;;2049274;28;20075;-77
2021/08/09 05:04:06;;;;;;;5.18;2.28;;;19.40;72.90;;;;;;2049285;29;20054;-77
2021/08/09 05:05:07;;;;;;;4.07;2.10;;;19.50;72.50;;;;;;2033629;29;20115;-77
2021/08/09 05:06:10;;;;;;;5.20;2.05;;;19.70;71.50;;;;;;2041716;29;20023;-78
2021/08/09 05:07:12;;;;;;;4.05;1.98;;;19.80;70.40;;;;;;2042009;29;20459;-77
2021/08/09 05:08:13;;;;;;;3.55;2.17;;;19.90;68.90;;;;;;2041531;29;20028;-78
2021/08/09 05:09:14;;;;;;;3.15;2.20;;;20.00;68.80;;;;;;2041570;29;20529;-77
2021/08/09 05:10:14;;;;;;;3.55;2.03;;;20.10;68.20;;;;;;2049661;29;20023;-76
2021/08/09 05:11:15;;;;;;;3.60;2.28;;;20.20;67.80;;;;;;2056535;28;20114;-78
2021/08/09 05:12:16;;;;;;;3.03;2.08;;;20.30;67.60;;;;;;2049229;29;20058;-77
2021/08/09 05:13:17;;;;;;;5.15;2.35;;;20.40;67.50;;;;;;2049160;29;20122;-76
2021/08/09 05:14:18;;;;;;;2.63;2.00;;;20.50;67.20;;;;;;2049039;29;20031;-76
2021/08/09 05:15:21;;;;;;;4.07;1.75;;;20.60;66.10;;;;;;2056958;28;20525;-76
2021/08/09 05:16:22;;;;;;;2.65;1.95;;;20.70;65.30;;;;;;2048656;29;20043;-76
2021/08/09 05:17:22;;;;;;;3.50;2.25;;;20.80;65.10;;;;;;2048823;29;20491;-76
2021/08/09 05:18:23;;;;;;;3.20;2.13;;;20.80;65.30;;;;;;2048545;29;20032;-76
2021/08/09 05:19:24;;;;;;;2.90;1.75;;;21.00;65.10;;;;;;2040872;29;20051;-76
2021/08/09 05:20:25;;;;;;;3.00;1.90;;;21.10;64.60;;;;;;2049033;29;20066;-76
2021/08/09 05:21:25;;;;;;;1.95;1.80;;;21.20;64.30;;;;;;2055947;28;20138;-76
2021/08/09 05:22:26;;;;;;;2.90;1.83;;;21.30;64.30;;;;;;2050031;28;20042;-76
2021/08/09 05:23:27;;;;;;;2.88;1.85;;;21.40;63.60;;;;;;2050379;28;20038;-77
2021/08/09 05:24:30;;;;;;;3.20;2.00;;;21.40;63.20;;;;;;2041914;29;20027;-77
2021/08/09 05:25:33;;;;;;;2.88;1.70;;;21.60;62.50;;;;;;2050038;29;20042;-77
2021/08/09 05:26:34;;;;;;;3.08;1.90;;;21.70;61.40;;;;;;2049996;28;20035;-76
2021/08/09 05:27:38;;;;;;;5.80;1.85;;;21.80;60.50;;;;;;2041453;29;20104;-78